sensor_id;sensor_type;location;lat;lon;timestamp;temperature;humidity
69162;DHT22;56269;51.738;21.652;2022-12-18T00:00:47;-6.50;99.99
69162;DHT22;56269;51.738;21.652;2022-12-18T00:03:35;-6.49;99.99
69162;DHT22;56269;51.738;21.652;2022-12-18T00:06:01;-6.46;99.99
69162;DHT22;56269;51.738;21.652;2022-12-18T00:08:28;-6.49;99.99
69162;DHT22;56269;51.738;21.652;2022-12-18T00:10:54;-6.45;99.99
69162;DHT22;56269;51.738;21.652;2022-12-18T00:13:21;-6.48;99.99
69162;DHT22;56269;51.738;21.652;2022-12-18T00:15:47;-6.48;99.99
69162;DHT22;56269;51.738;21.652;2022-12-18T00:18:13;-6.45;99.99
69162;DHT22;56269;51.738;21.652;2022-12-18T00:20:39;-6.43;99.99
69162;DHT22;56269;51.738;21.652;2022-12-18T00:23:07;-6.43;99.99
69162;DHT22;56269;51.738;21.652;2022-12-18T00:25:34;-6.41;99.99
69162;DHT22;56269;51.738;21.652;2022-12-18T00:28:03;-6.45;99.99
69162;DHT22;56269;51.738;21.652;2022-12-18T00:30:29;-6.39;99.99
69162;DHT22;56269;51.738;21.652;2022-12-18T00:32:57;-6.42;99.99
69162;DHT22;56269;51.738;21.652;2022-12-18T00:35:23;-6.42;99.99
69162;DHT22;56269;51.738;21.652;2022-12-18T00:37:49;-6.39;99.99
69162;DHT22;56269;51.738;21.652;2022-12-18T00:40:15;-6.41;99.99
69162;DHT22;56269;51.738;21.652;2022-12-18T00:42:42;-6.36;99.99
69162;DHT22;56269;51.738;21.652;2022-12-18T00:45:28;-6.38;99.99
69162;DHT22;56269;51.738;21.652;2022-12-18T00:47:55;-6.45;99.99
69162;DHT22;56269;51.738;21.652;2022-12-18T00:50:22;-6.42;99.99
69162;DHT22;56269;51.738;21.652;2022-12-18T00:52:49;-6.45;99.99
69162;DHT22;56269;51.738;21.652;2022-12-18T00:55:16;-6.45;99.99
69162;DHT22;56269;51.738;21.652;2022-12-18T00:57:42;-6.46;99.99
69162;DHT22;56269;51.738;21.652;2022-12-18T01:00:12;-6.49;99.99
69162;DHT22;56269;51.738;21.652;2022-12-18T01:02:40;-6.43;99.99
69162;DHT22;56269;51.738;21.652;2022-12-18T01:05:07;-6.46;99.99
69162;DHT22;56269;51.738;21.652;2022-12-18T01:07:34;-6.46;99.99
69162;DHT22;56269;51.738;21.652;2022-12-18T01:10:00;-6.46;99.99
69162;DHT22;56269;51.738;21.652;2022-12-18T01:12:27;-6.43;99.99
69162;DHT22;56269;51.738;21.652;2022-12-18T01:14:53;-6.42;99.99
69162;DHT22;56269;51.738;21.652;2022-12-18T01:17:19;-6.42;99.99
69162;DHT22;56269;51.738;21.652;2022-12-18T01:19:45;-6.39;99.99
69162;DHT22;56269;51.738;21.652;2022-12-18T01:22:12;-6.39;99.99
69162;DHT22;56269;51.738;21.652;2022-12-18T01:24:38;-6.38;99.99
69162;DHT22;56269;51.738;21.652;2022-12-18T01:27:04;-6.36;99.99
69162;DHT22;56269;51.738;21.652;2022-12-18T01:29:30;-6.35;99.99
69162;DHT22;56269;51.738;21.652;2022-12-18T01:31:57;-6.32;99.99
69162;DHT22;56269;51.738;21.652;2022-12-18T01:34:24;-6.32;99.99
69162;DHT22;56269;51.738;21.652;2022-12-18T01:36:50;-6.36;99.99
69162;DHT22;56269;51.738;21.652;2022-12-18T01:39:18;-6.36;99.99
69162;DHT22;56269;51.738;21.652;2022-12-18T01:41:45;-6.38;99.99
69162;DHT22;56269;51.738;21.652;2022-12-18T01:44:59;-6.38;99.99
69162;DHT22;56269;51.738;21.652;2022-12-18T01:47:35;-6.32;99.99
69162;DHT22;56269;51.738;21.652;2022-12-18T01:50:23;-6.35;99.99
69162;DHT22;56269;51.738;21.652;2022-12-18T01:53:05;-6.32;99.99
69162;DHT22;56269;51.738;21.652;2022-12-18T01:55:36;-6.31;99.99
69162;DHT22;56269;51.738;21.652;2022-12-18T01:58:04;-6.31;99.99
69162;DHT22;56269;51.738;21.652;2022-12-18T02:00:31;-6.24;99.99
69162;DHT22;56269;51.738;21.652;2022-12-18T02:02:57;-6.26;99.99
69162;DHT22;56269;51.738;21.652;2022-12-18T02:05:45;-6.26;99.99
69162;DHT22;56269;51.738;21.652;2022-12-18T02:13:26;-6.17;99.99
69162;DHT22;56269;51.738;21.652;2022-12-18T02:18:32;-6.12;99.99
69162;DHT22;56269;51.738;21.652;2022-12-18T02:21:40;-6.12;99.99
69162;DHT22;56269;51.738;21.652;2022-12-18T02:24:51;-6.10;99.99
69162;DHT22;56269;51.738;21.652;2022-12-18T02:27:16;-6.08;99.99
69162;DHT22;56269;51.738;21.652;2022-12-18T02:29:54;-6.07;99.99
69162;DHT22;56269;51.738;21.652;2022-12-18T02:32:25;-6.05;99.99
69162;DHT22;56269;51.738;21.652;2022-12-18T02:34:55;-6.10;99.99
69162;DHT22;56269;51.738;21.652;2022-12-18T02:37:23;-6.10;99.99
69162;DHT22;56269;51.738;21.652;2022-12-18T02:39:53;-6.11;99.99
69162;DHT22;56269;51.738;21.652;2022-12-18T02:42:20;-6.10;99.99
69162;DHT22;56269;51.738;21.652;2022-12-18T02:44:49;-6.08;99.99
69162;DHT22;56269;51.738;21.652;2022-12-18T02:47:18;-6.07;99.99
69162;DHT22;56269;51.738;21.652;2022-12-18T03:03:21;-6.05;99.99
69162;DHT22;56269;51.738;21.652;2022-12-18T03:06:12;-6.04;99.99
69162;DHT22;56269;51.738;21.652;2022-12-18T03:08:46;-6.00;99.99
69162;DHT22;56269;51.738;21.652;2022-12-18T03:11:14;-6.01;99.99
69162;DHT22;56269;51.738;21.652;2022-12-18T03:13:50;-6.00;99.99
69162;DHT22;56269;51.738;21.652;2022-12-18T03:16:24;-6.01;99.99
69162;DHT22;56269;51.738;21.652;2022-12-18T03:19:00;-5.95;99.99
69162;DHT22;56269;51.738;21.652;2022-12-18T03:21:35;-5.93;99.99
69162;DHT22;56269;51.738;21.652;2022-12-18T03:24:06;-5.93;99.99
69162;DHT22;56269;51.738;21.652;2022-12-18T03:26:34;-5.94;99.99
69162;DHT22;56269;51.738;21.652;2022-12-18T03:29:06;-5.93;99.99
69162;DHT22;56269;51.738;21.652;2022-12-18T03:31:34;-5.93;99.99
69162;DHT22;56269;51.738;21.652;2022-12-18T03:34:07;-5.91;99.99
69162;DHT22;56269;51.738;21.652;2022-12-18T03:36:35;-5.94;99.99
69162;DHT22;56269;51.738;21.652;2022-12-18T03:39:01;-5.91;99.99
69162;DHT22;56269;51.738;21.652;2022-12-18T03:49:39;-5.89;99.99
69162;DHT22;56269;51.738;21.652;2022-12-18T03:53:00;-5.87;99.99
69162;DHT22;56269;51.738;21.652;2022-12-18T03:55:09;-5.83;99.99
69162;DHT22;56269;51.738;21.652;2022-12-18T03:57:37;-5.81;99.99
69162;DHT22;56269;51.738;21.652;2022-12-18T04:00:07;-5.81;99.99
69162;DHT22;56269;51.738;21.652;2022-12-18T04:02:35;-5.83;99.99
69162;DHT22;56269;51.738;21.652;2022-12-18T04:05:05;-5.79;99.99
69162;DHT22;56269;51.738;21.652;2022-12-18T04:07:33;-5.79;99.99
69162;DHT22;56269;51.738;21.652;2022-12-18T04:10:01;-5.77;99.99
69162;DHT22;56269;51.738;21.652;2022-12-18T04:12:29;-5.76;99.99
69162;DHT22;56269;51.738;21.652;2022-12-18T04:14:55;-5.76;99.99
69162;DHT22;56269;51.738;21.652;2022-12-18T04:17:22;-5.76;99.99
69162;DHT22;56269;51.738;21.652;2022-12-18T04:19:48;-5.77;99.99
69162;DHT22;56269;51.738;21.652;2022-12-18T04:22:14;-5.74;99.99
69162;DHT22;56269;51.738;21.652;2022-12-18T04:24:40;-5.74;99.99
69162;DHT22;56269;51.738;21.652;2022-12-18T04:27:07;-5.74;99.99
69162;DHT22;56269;51.738;21.652;2022-12-18T04:29:33;-5.74;99.99
69162;DHT22;56269;51.738;21.652;2022-12-18T04:31:59;-5.71;99.99
69162;DHT22;56269;51.738;21.652;2022-12-18T04:34:25;-5.73;99.99
69162;DHT22;56269;51.738;21.652;2022-12-18T04:36:51;-5.73;99.99
69162;DHT22;56269;51.738;21.652;2022-12-18T04:39:18;-5.69;99.99
69162;DHT22;56269;51.738;21.652;2022-12-18T04:41:44;-5.69;99.99
69162;DHT22;56269;51.738;21.652;2022-12-18T04:44:10;-5.69;99.99
69162;DHT22;56269;51.738;21.652;2022-12-18T04:46:37;-5.71;99.99
69162;DHT22;56269;51.738;21.652;2022-12-18T04:49:03;-5.67;99.99
69162;DHT22;56269;51.738;21.652;2022-12-18T04:51:29;-5.67;99.99
69162;DHT22;56269;51.738;21.652;2022-12-18T04:53:55;-5.64;99.99
69162;DHT22;56269;51.738;21.652;2022-12-18T04:56:22;-5.70;99.99
69162;DHT22;56269;51.738;21.652;2022-12-18T04:58:48;-5.64;99.99
69162;DHT22;56269;51.738;21.652;2022-12-18T05:01:16;-5.62;99.99
69162;DHT22;56269;51.738;21.652;2022-12-18T05:03:43;-5.63;99.99
69162;DHT22;56269;51.738;21.652;2022-12-18T05:06:09;-5.64;99.99
69162;DHT22;56269;51.738;21.652;2022-12-18T05:08:36;-5.63;99.99
69162;DHT22;56269;51.738;21.652;2022-12-18T05:11:05;-5.62;99.99
69162;DHT22;56269;51.738;21.652;2022-12-18T05:13:32;-5.60;99.99
69162;DHT22;56269;51.738;21.652;2022-12-18T05:15:58;-5.59;99.99
69162;DHT22;56269;51.738;21.652;2022-12-18T05:18:25;-5.63;99.99
69162;DHT22;56269;51.738;21.652;2022-12-18T05:20:53;-5.63;99.99
69162;DHT22;56269;51.738;21.652;2022-12-18T05:23:20;-5.63;99.99
69162;DHT22;56269;51.738;21.652;2022-12-18T05:25:55;-5.64;99.99
69162;DHT22;56269;51.738;21.652;2022-12-18T05:28:22;-5.57;99.99
69162;DHT22;56269;51.738;21.652;2022-12-18T05:30:53;-5.57;99.99
69162;DHT22;56269;51.738;21.652;2022-12-18T05:33:22;-5.59;99.99
69162;DHT22;56269;51.738;21.652;2022-12-18T05:35:57;-5.57;99.99
69162;DHT22;56269;51.738;21.652;2022-12-18T05:38:25;-5.57;99.99
69162;DHT22;56269;51.738;21.652;2022-12-18T05:40:52;-5.55;99.99
69162;DHT22;56269;51.738;21.652;2022-12-18T05:43:19;-5.55;99.99
69162;DHT22;56269;51.738;21.652;2022-12-18T05:45:46;-5.55;99.70
69162;DHT22;56269;51.738;21.652;2022-12-18T05:48:12;-5.52;99.73
69162;DHT22;56269;51.738;21.652;2022-12-18T05:50:41;-5.49;99.70
69162;DHT22;56269;51.738;21.652;2022-12-18T05:53:08;-5.50;99.64
69162;DHT22;56269;51.738;21.652;2022-12-18T05:55:36;-5.50;99.68
69162;DHT22;56269;51.738;21.652;2022-12-18T05:58:04;-5.53;99.74
69162;DHT22;56269;51.738;21.652;2022-12-18T06:00:31;-5.50;99.69
69162;DHT22;56269;51.738;21.652;2022-12-18T06:02:58;-5.53;99.70
69162;DHT22;56269;51.738;21.652;2022-12-18T06:05:25;-5.53;99.73
69162;DHT22;56269;51.738;21.652;2022-12-18T06:07:51;-5.52;99.64
69162;DHT22;56269;51.738;21.652;2022-12-18T06:10:18;-5.52;99.30
69162;DHT22;56269;51.738;21.652;2022-12-18T06:12:44;-5.49;99.26
69162;DHT22;56269;51.738;21.652;2022-12-18T06:15:10;-5.52;99.24
69162;DHT22;56269;51.738;21.652;2022-12-18T06:17:36;-5.52;99.41
69162;DHT22;56269;51.738;21.652;2022-12-18T06:20:04;-5.53;99.24
69162;DHT22;56269;51.738;21.652;2022-12-18T06:22:31;-5.52;99.27
69162;DHT22;56269;51.738;21.652;2022-12-18T06:24:58;-5.53;99.29
69162;DHT22;56269;51.738;21.652;2022-12-18T06:27:25;-5.53;99.34
69162;DHT22;56269;51.738;21.652;2022-12-18T06:29:51;-5.55;99.45
69162;DHT22;56269;51.738;21.652;2022-12-18T06:32:17;-5.57;99.17
69162;DHT22;56269;51.738;21.652;2022-12-18T06:34:44;-5.55;98.88
69162;DHT22;56269;51.738;21.652;2022-12-18T06:37:10;-5.56;99.01
69162;DHT22;56269;51.738;21.652;2022-12-18T06:39:36;-5.57;98.89
69162;DHT22;56269;51.738;21.652;2022-12-18T06:42:03;-5.57;98.91
69162;DHT22;56269;51.738;21.652;2022-12-18T06:44:29;-5.60;99.08
69162;DHT22;56269;51.738;21.652;2022-12-18T06:46:55;-5.62;98.94
69162;DHT22;56269;51.738;21.652;2022-12-18T06:49:21;-5.60;98.87
69162;DHT22;56269;51.738;21.652;2022-12-18T06:51:47;-5.63;98.89
69162;DHT22;56269;51.738;21.652;2022-12-18T06:54:14;-5.64;98.94
69162;DHT22;56269;51.738;21.652;2022-12-18T06:56:40;-5.63;98.87
69162;DHT22;56269;51.738;21.652;2022-12-18T06:59:06;-5.63;98.79
69162;DHT22;56269;51.738;21.652;2022-12-18T07:01:32;-5.62;98.73
69162;DHT22;56269;51.738;21.652;2022-12-18T07:03:59;-5.63;98.38
69162;DHT22;56269;51.738;21.652;2022-12-18T07:06:25;-5.59;98.68
69162;DHT22;56269;51.738;21.652;2022-12-18T07:08:52;-5.59;97.84
69162;DHT22;56269;51.738;21.652;2022-12-18T07:11:20;-5.56;98.17
69162;DHT22;56269;51.738;21.652;2022-12-18T07:13:46;-5.53;97.91
69162;DHT22;56269;51.738;21.652;2022-12-18T07:16:17;-5.55;97.95
69162;DHT22;56269;51.738;21.652;2022-12-18T07:18:44;-5.56;98.05
69162;DHT22;56269;51.738;21.652;2022-12-18T07:21:14;-5.55;97.84
69162;DHT22;56269;51.738;21.652;2022-12-18T07:23:40;-5.52;97.94
69162;DHT22;56269;51.738;21.652;2022-12-18T07:26:09;-5.50;97.91
69162;DHT22;56269;51.738;21.652;2022-12-18T07:28:36;-5.43;97.83
69162;DHT22;56269;51.738;21.652;2022-12-18T07:31:04;-5.49;97.69
69162;DHT22;56269;51.738;21.652;2022-12-18T07:33:33;-5.48;97.16
69162;DHT22;56269;51.738;21.652;2022-12-18T07:36:00;-5.49;97.53
69162;DHT22;56269;51.738;21.652;2022-12-18T07:38:26;-5.48;96.87
69162;DHT22;56269;51.738;21.652;2022-12-18T07:40:52;-5.50;96.59
69162;DHT22;56269;51.738;21.652;2022-12-18T07:43:19;-5.49;96.42
69162;DHT22;56269;51.738;21.652;2022-12-18T07:45:45;-5.50;96.39
69162;DHT22;56269;51.738;21.652;2022-12-18T07:48:11;-5.56;96.08
69162;DHT22;56269;51.738;21.652;2022-12-18T07:50:37;-5.60;95.95
69162;DHT22;56269;51.738;21.652;2022-12-18T07:53:04;-5.62;96.38
69162;DHT22;56269;51.738;21.652;2022-12-18T07:55:31;-5.55;96.45
69162;DHT22;56269;51.738;21.652;2022-12-18T07:58:01;-5.53;96.46
69162;DHT22;56269;51.738;21.652;2022-12-18T08:00:28;-5.52;96.38
69162;DHT22;56269;51.738;21.652;2022-12-18T08:02:54;-5.53;96.40
69162;DHT22;56269;51.738;21.652;2022-12-18T08:05:21;-5.50;96.25
69162;DHT22;56269;51.738;21.652;2022-12-18T08:07:47;-5.50;96.29
69162;DHT22;56269;51.738;21.652;2022-12-18T08:10:13;-5.40;96.02
69162;DHT22;56269;51.738;21.652;2022-12-18T08:12:40;-5.36;96.06
69162;DHT22;56269;51.738;21.652;2022-12-18T08:15:06;-5.42;95.48
69162;DHT22;56269;51.738;21.652;2022-12-18T08:17:32;-5.43;95.30
69162;DHT22;56269;51.738;21.652;2022-12-18T08:19:58;-5.40;95.24
69162;DHT22;56269;51.738;21.652;2022-12-18T08:22:25;-5.43;94.93
69162;DHT22;56269;51.738;21.652;2022-12-18T08:24:51;-5.33;94.87
69162;DHT22;56269;51.738;21.652;2022-12-18T08:27:18;-5.30;94.34
69162;DHT22;56269;51.738;21.652;2022-12-18T08:29:44;-5.25;94.07
69162;DHT22;56269;51.738;21.652;2022-12-18T08:32:10;-5.29;93.79
69162;DHT22;56269;51.738;21.652;2022-12-18T08:34:36;-5.29;93.94
69162;DHT22;56269;51.738;21.652;2022-12-18T08:37:03;-5.11;93.34
69162;DHT22;56269;51.738;21.652;2022-12-18T08:39:29;-5.01;93.21
69162;DHT22;56269;51.738;21.652;2022-12-18T08:41:55;-4.97;93.28
69162;DHT22;56269;51.738;21.652;2022-12-18T08:44:39;-5.02;92.54
69162;DHT22;56269;51.738;21.652;2022-12-18T08:47:07;-4.87;92.06
69162;DHT22;56269;51.738;21.652;2022-12-18T08:49:34;-4.84;91.94
69162;DHT22;56269;51.738;21.652;2022-12-18T08:52:00;-4.85;91.88
69162;DHT22;56269;51.738;21.652;2022-12-18T08:54:28;-4.89;92.03
69162;DHT22;56269;51.738;21.652;2022-12-18T08:56:54;-5.04;91.72
69162;DHT22;56269;51.738;21.652;2022-12-18T08:59:20;-4.91;92.13
69162;DHT22;56269;51.738;21.652;2022-12-18T09:01:47;-4.94;92.38
69162;DHT22;56269;51.738;21.652;2022-12-18T09:04:13;-4.81;91.25
69162;DHT22;56269;51.738;21.652;2022-12-18T09:06:40;-4.94;91.16
69162;DHT22;56269;51.738;21.652;2022-12-18T09:09:06;-4.71;91.33
69162;DHT22;56269;51.738;21.652;2022-12-18T09:11:33;-4.92;91.06
69162;DHT22;56269;51.738;21.652;2022-12-18T09:14:00;-4.80;90.93
69162;DHT22;56269;51.738;21.652;2022-12-18T09:16:28;-4.95;91.34
69162;DHT22;56269;51.738;21.652;2022-12-18T09:18:55;-4.84;91.02
69162;DHT22;56269;51.738;21.652;2022-12-18T09:21:27;-4.95;91.55
69162;DHT22;56269;51.738;21.652;2022-12-18T09:23:55;-4.71;90.64
69162;DHT22;56269;51.738;21.652;2022-12-18T09:26:23;-4.85;90.56
69162;DHT22;56269;51.738;21.652;2022-12-18T09:28:49;-4.99;91.64
69162;DHT22;56269;51.738;21.652;2022-12-18T09:31:18;-5.02;91.41
69162;DHT22;56269;51.738;21.652;2022-12-18T09:33:45;-4.99;92.05
69162;DHT22;56269;51.738;21.652;2022-12-18T09:36:14;-4.80;91.46
69162;DHT22;56269;51.738;21.652;2022-12-18T09:38:40;-4.71;91.30
69162;DHT22;56269;51.738;21.652;2022-12-18T09:41:45;-4.43;90.66
69162;DHT22;56269;51.738;21.652;2022-12-18T09:44:32;-4.40;90.19
69162;DHT22;56269;51.738;21.652;2022-12-18T09:47:23;-4.60;91.09
69162;DHT22;56269;51.738;21.652;2022-12-18T09:49:58;-4.47;90.80
69162;DHT22;56269;51.738;21.652;2022-12-18T09:55:12;-4.78;92.40
69162;DHT22;56269;51.738;21.652;2022-12-18T09:57:47;-4.89;92.54
69162;DHT22;56269;51.738;21.652;2022-12-18T10:00:20;-4.71;91.42
69162;DHT22;56269;51.738;21.652;2022-12-18T10:02:47;-4.52;91.03
69162;DHT22;56269;51.738;21.652;2022-12-18T10:08:02;-4.43;90.93
69162;DHT22;56269;51.738;21.652;2022-12-18T10:10:49;-4.46;91.00
69162;DHT22;56269;51.738;21.652;2022-12-18T10:27:16;-3.93;89.47
69162;DHT22;56269;51.738;21.652;2022-12-18T10:29:45;-3.88;89.49
69162;DHT22;56269;51.738;21.652;2022-12-18T10:32:20;-4.05;90.14
69162;DHT22;56269;51.738;21.652;2022-12-18T10:34:49;-4.06;90.37
69162;DHT22;56269;51.738;21.652;2022-12-18T10:37:21;-3.82;89.59
69162;DHT22;56269;51.738;21.652;2022-12-18T10:40:15;-3.82;88.99
69162;DHT22;56269;51.738;21.652;2022-12-18T10:42:41;-4.03;89.10
69162;DHT22;56269;51.738;21.652;2022-12-18T10:45:14;-3.86;89.39
69162;DHT22;56269;51.738;21.652;2022-12-18T10:47:48;-3.78;88.34
69162;DHT22;56269;51.738;21.652;2022-12-18T10:50:29;-3.72;88.13
69162;DHT22;56269;51.738;21.652;2022-12-18T10:53:00;-3.61;88.01
69162;DHT22;56269;51.738;21.652;2022-12-18T10:55:54;-3.92;88.61
69162;DHT22;56269;51.738;21.652;2022-12-18T11:01:14;-4.32;89.96
69162;DHT22;56269;51.738;21.652;2022-12-18T11:03:46;-3.89;89.01
69162;DHT22;56269;51.738;21.652;2022-12-18T11:06:25;-3.93;89.00
69162;DHT22;56269;51.738;21.652;2022-12-18T11:09:20;-4.27;90.67
69162;DHT22;56269;51.738;21.652;2022-12-18T11:11:50;-4.52;91.35
69162;DHT22;56269;51.738;21.652;2022-12-18T11:14:25;-4.44;91.81
69162;DHT22;56269;51.738;21.652;2022-12-18T11:16:53;-4.54;92.44
69162;DHT22;56269;51.738;21.652;2022-12-18T11:19:36;-4.57;92.18
69162;DHT22;56269;51.738;21.652;2022-12-18T11:24:57;-4.37;91.43
69162;DHT22;56269;51.738;21.652;2022-12-18T11:27:25;-4.27;91.23
69162;DHT22;56269;51.738;21.652;2022-12-18T11:29:51;-4.19;90.86
69162;DHT22;56269;51.738;21.652;2022-12-18T11:32:29;-4.01;90.44
69162;DHT22;56269;51.738;21.652;2022-12-18T11:38:17;-4.01;90.44
69162;DHT22;56269;51.738;21.652;2022-12-18T11:40:50;-3.96;90.48
69162;DHT22;56269;51.738;21.652;2022-12-18T11:43:40;-3.99;90.38
69162;DHT22;56269;51.738;21.652;2022-12-18T11:46:33;-4.09;90.96
69162;DHT22;56269;51.738;21.652;2022-12-18T11:49:11;-4.22;91.31
69162;DHT22;56269;51.738;21.652;2022-12-18T11:54:16;-4.12;90.95
69162;DHT22;56269;51.738;21.652;2022-12-18T11:56:53;-4.23;91.50
69162;DHT22;56269;51.738;21.652;2022-12-18T12:02:56;-4.01;90.80
69162;DHT22;56269;51.738;21.652;2022-12-18T12:19:21;-4.32;92.57
69162;DHT22;56269;51.738;21.652;2022-12-18T12:22:16;-4.13;92.15
69162;DHT22;56269;51.738;21.652;2022-12-18T12:25:37;-4.39;92.47
69162;DHT22;56269;51.738;21.652;2022-12-18T12:30:35;-4.46;93.41
69162;DHT22;56269;51.738;21.652;2022-12-18T12:41:13;-4.88;94.74
69162;DHT22;56269;51.738;21.652;2022-12-18T12:44:02;-4.84;94.20
69162;DHT22;56269;51.738;21.652;2022-12-18T12:46:33;-4.67;94.15
69162;DHT22;56269;51.738;21.652;2022-12-18T12:49:04;-4.65;93.72
69162;DHT22;56269;51.738;21.652;2022-12-18T12:51:38;-4.83;93.93
69162;DHT22;56269;51.738;21.652;2022-12-18T12:54:21;-4.83;94.19
69162;DHT22;56269;51.738;21.652;2022-12-18T12:59:52;-4.92;94.54
69162;DHT22;56269;51.738;21.652;2022-12-18T13:07:45;-4.70;93.88
69162;DHT22;56269;51.738;21.652;2022-12-18T13:13:04;-4.80;94.47
69162;DHT22;56269;51.738;21.652;2022-12-18T13:16:06;-4.85;94.73
69162;DHT22;56269;51.738;21.652;2022-12-18T13:18:34;-4.74;94.53
69162;DHT22;56269;51.738;21.652;2022-12-18T13:23:46;-4.87;94.73
69162;DHT22;56269;51.738;21.652;2022-12-18T13:31:13;-4.84;95.22
69162;DHT22;56269;51.738;21.652;2022-12-18T13:33:44;-4.83;94.72
69162;DHT22;56269;51.738;21.652;2022-12-18T13:36:29;-4.97;95.26
69162;DHT22;56269;51.738;21.652;2022-12-18T13:41:53;-5.32;96.62
69162;DHT22;56269;51.738;21.652;2022-12-18T13:44:37;-5.38;96.55
69162;DHT22;56269;51.738;21.652;2022-12-18T13:47:32;-5.48;96.79
69162;DHT22;56269;51.738;21.652;2022-12-18T13:50:00;-5.46;96.96
69162;DHT22;56269;51.738;21.652;2022-12-18T13:52:35;-5.59;97.23
69162;DHT22;56269;51.738;21.652;2022-12-18T13:55:10;-5.64;97.68
69162;DHT22;56269;51.738;21.652;2022-12-18T13:57:40;-5.67;97.89
69162;DHT22;56269;51.738;21.652;2022-12-18T14:02:49;-5.38;97.43
69162;DHT22;56269;51.738;21.652;2022-12-18T14:05:26;-5.56;97.52
69162;DHT22;56269;51.738;21.652;2022-12-18T14:07:54;-5.71;97.55
69162;DHT22;56269;51.738;21.652;2022-12-18T14:10:21;-5.79;98.07
69162;DHT22;56269;51.738;21.652;2022-12-18T14:13:10;-5.84;98.66
69162;DHT22;56269;51.738;21.652;2022-12-18T14:15:47;-5.89;98.97
69162;DHT22;56269;51.738;21.652;2022-12-18T14:18:42;-5.97;98.92
69162;DHT22;56269;51.738;21.652;2022-12-18T14:23:46;-6.07;99.59
69162;DHT22;56269;51.738;21.652;2022-12-18T14:26:38;-6.14;99.99
69162;DHT22;56269;51.738;21.652;2022-12-18T14:29:18;-6.18;99.99
69162;DHT22;56269;51.738;21.652;2022-12-18T14:31:44;-6.25;99.99
69162;DHT22;56269;51.738;21.652;2022-12-18T14:34:17;-6.24;99.99
69162;DHT22;56269;51.738;21.652;2022-12-18T14:36:52;-6.32;99.99
69162;DHT22;56269;51.738;21.652;2022-12-18T14:39:19;-6.32;99.99
69162;DHT22;56269;51.738;21.652;2022-12-18T14:41:45;-6.32;99.99
69162;DHT22;56269;51.738;21.652;2022-12-18T14:44:12;-6.31;99.99
69162;DHT22;56269;51.738;21.652;2022-12-18T14:46:41;-6.28;99.99
69162;DHT22;56269;51.738;21.652;2022-12-18T14:49:29;-6.29;99.99
69162;DHT22;56269;51.738;21.652;2022-12-18T14:52:06;-6.35;99.99
69162;DHT22;56269;51.738;21.652;2022-12-18T14:54:46;-6.33;99.99
69162;DHT22;56269;51.738;21.652;2022-12-18T14:57:24;-6.22;99.99
69162;DHT22;56269;51.738;21.652;2022-12-18T14:59:51;-6.21;99.99
69162;DHT22;56269;51.738;21.652;2022-12-18T15:02:28;-6.15;99.99
69162;DHT22;56269;51.738;21.652;2022-12-18T15:05:04;-6.26;99.99
69162;DHT22;56269;51.738;21.652;2022-12-18T15:07:43;-6.32;99.99
69162;DHT22;56269;51.738;21.652;2022-12-18T15:10:14;-6.35;99.99
69162;DHT22;56269;51.738;21.652;2022-12-18T15:18:00;-6.38;99.99
69162;DHT22;56269;51.738;21.652;2022-12-18T15:20:27;-6.42;99.99
69162;DHT22;56269;51.738;21.652;2022-12-18T15:22:55;-6.38;99.99
69162;DHT22;56269;51.738;21.652;2022-12-18T15:25:31;-6.25;99.99
69162;DHT22;56269;51.738;21.652;2022-12-18T15:28:01;-6.29;99.99
69162;DHT22;56269;51.738;21.652;2022-12-18T15:30:29;-6.28;99.99
69162;DHT22;56269;51.738;21.652;2022-12-18T15:33:17;-6.28;99.99
69162;DHT22;56269;51.738;21.652;2022-12-18T15:35:59;-6.25;99.99
69162;DHT22;56269;51.738;21.652;2022-12-18T15:38:28;-6.24;99.99
69162;DHT22;56269;51.738;21.652;2022-12-18T15:40:56;-6.26;99.99
69162;DHT22;56269;51.738;21.652;2022-12-18T15:43:25;-6.29;99.99
69162;DHT22;56269;51.738;21.652;2022-12-18T15:46:12;-6.18;99.99
69162;DHT22;56269;51.738;21.652;2022-12-18T15:48:41;-6.12;99.99
69162;DHT22;56269;51.738;21.652;2022-12-18T15:51:19;-6.10;99.99
69162;DHT22;56269;51.738;21.652;2022-12-18T15:53:47;-6.15;99.99
69162;DHT22;56269;51.738;21.652;2022-12-18T15:56:16;-6.14;99.99
69162;DHT22;56269;51.738;21.652;2022-12-18T15:59:02;-6.24;99.99
69162;DHT22;56269;51.738;21.652;2022-12-18T16:01:30;-6.24;99.99
69162;DHT22;56269;51.738;21.652;2022-12-18T16:04:00;-6.25;99.99
69162;DHT22;56269;51.738;21.652;2022-12-18T16:06:27;-6.28;99.99
69162;DHT22;56269;51.738;21.652;2022-12-18T16:08:54;-6.22;99.99
69162;DHT22;56269;51.738;21.652;2022-12-18T16:11:27;-6.18;99.99
69162;DHT22;56269;51.738;21.652;2022-12-18T16:14:22;-6.15;99.99
69162;DHT22;56269;51.738;21.652;2022-12-18T16:16:53;-6.15;99.88
69162;DHT22;56269;51.738;21.652;2022-12-18T16:19:21;-6.15;99.89
69162;DHT22;56269;51.738;21.652;2022-12-18T16:21:50;-6.14;99.99
69162;DHT22;56269;51.738;21.652;2022-12-18T16:24:20;-6.18;99.96
69162;DHT22;56269;51.738;21.652;2022-12-18T16:26:52;-6.15;99.99
69162;DHT22;56269;51.738;21.652;2022-12-18T16:29:20;-6.18;99.99
69162;DHT22;56269;51.738;21.652;2022-12-18T16:31:51;-6.12;99.99
69162;DHT22;56269;51.738;21.652;2022-12-18T16:34:26;-6.12;99.99
69162;DHT22;56269;51.738;21.652;2022-12-18T16:36:58;-6.11;99.99
69162;DHT22;56269;51.738;21.652;2022-12-18T16:39:26;-6.10;99.99
69162;DHT22;56269;51.738;21.652;2022-12-18T16:41:57;-6.07;99.78
69162;DHT22;56269;51.738;21.652;2022-12-18T16:44:25;-6.05;99.07
69162;DHT22;56269;51.738;21.652;2022-12-18T16:46:53;-6.11;99.37
69162;DHT22;56269;51.738;21.652;2022-12-18T16:49:19;-6.11;99.49
69162;DHT22;56269;51.738;21.652;2022-12-18T16:51:48;-6.15;99.68
69162;DHT22;56269;51.738;21.652;2022-12-18T16:54:15;-6.08;99.92
69162;DHT22;56269;51.738;21.652;2022-12-18T16:56:42;-6.08;99.36
69162;DHT22;56269;51.738;21.652;2022-12-18T16:59:10;-6.12;99.49
69162;DHT22;56269;51.738;21.652;2022-12-18T17:01:40;-6.07;99.44
69162;DHT22;56269;51.738;21.652;2022-12-18T17:04:08;-6.10;98.96
69162;DHT22;56269;51.738;21.652;2022-12-18T17:06:40;-6.15;98.99
69162;DHT22;56269;51.738;21.652;2022-12-18T17:09:12;-6.21;98.85
69162;DHT22;56269;51.738;21.652;2022-12-18T17:11:43;-6.21;98.92
69162;DHT22;56269;51.738;21.652;2022-12-18T17:14:15;-6.21;99.04
69162;DHT22;56269;51.738;21.652;2022-12-18T17:16:42;-6.18;99.13
69162;DHT22;56269;51.738;21.652;2022-12-18T17:19:10;-6.21;98.93
69162;DHT22;56269;51.738;21.652;2022-12-18T17:21:37;-6.21;99.09
69162;DHT22;56269;51.738;21.652;2022-12-18T17:24:04;-6.20;99.04
69162;DHT22;56269;51.738;21.652;2022-12-18T17:26:32;-6.18;98.98
69162;DHT22;56269;51.738;21.652;2022-12-18T17:28:58;-6.22;99.20
69162;DHT22;56269;51.738;21.652;2022-12-18T17:31:28;-6.29;99.49
69162;DHT22;56269;51.738;21.652;2022-12-18T17:33:56;-6.26;99.41
69162;DHT22;56269;51.738;21.652;2022-12-18T17:36:23;-6.24;99.52
69162;DHT22;56269;51.738;21.652;2022-12-18T17:38:56;-6.32;99.66